Time;durP1;ratioP1;P1;durP2;ratioP2;P2;SDS_P1;SDS_P2;PMS_P1;PMS_P2;Temp;Humidity;BMP_temperature;BMP_pressure;BME280_temperature;BME280_humidity;BME280_pressure;Samples;Min_cycle;Max_cycle;Signal;HPM_P1;HPM_P2
2021/07/18 00:00:38;;;;;;;6.93;2.67;;;;;;;;;;5091778;28;20380;-49
2021/07/18 00:03:04;;;;;;;6.63;3.03;;;;;;;;;;5086556;28;20033;-49
2021/07/18 00:05:30;;;;;;;5.93;2.83;;;;;;;;;;5095417;28;20433;-50
2021/07/18 00:07:56;;;;;;;5.28;2.90;;;;;;;;;;5069881;28;20024;-49
2021/07/18 00:10:27;;;;;;;6.60;2.97;;;;;;;;;;5091024;28;20480;-50
2021/07/18 00:12:53;;;;;;;6.00;2.65;;;;;;;;;;5079653;28;20107;-50
2021/07/18 00:15:19;;;;;;;8.00;2.47;;;;;;;;;;5078775;28;20066;-52
2021/07/18 00:17:45;;;;;;;4.70;2.20;;;;;;;;;;5094942;28;20051;-53
2021/07/18 00:20:14;;;;;;;4.93;2.42;;;;;;;;;;5095221;28;20035;-51
2021/07/18 00:22:41;;;;;;;7.57;2.72;;;;;;;;;;5085394;28;20104;-51
2021/07/18 00:25:08;;;;;;;4.95;2.67;;;;;;;;;;5095347;28;20543;-49
2021/07/18 00:27:34;;;;;;;6.53;2.50;;;;;;;;;;5094509;28;20034;-53
2021/07/18 00:30:00;;;;;;;3.83;2.30;;;;;;;;;;5095047;28;20051;-51
2021/07/18 00:32:26;;;;;;;6.15;2.70;;;;;;;;;;5094641;28;20545;-50
2021/07/18 00:34:52;;;;;;;7.05;3.33;;;;;;;;;;5074588;28;20059;-50
2021/07/18 00:37:18;;;;;;;9.50;3.13;;;;;;;;;;5092662;28;20048;-50
2021/07/18 00:39:44;;;;;;;4.68;2.53;;;;;;;;;;5090739;28;20032;-49
2021/07/18 00:42:10;;;;;;;7.05;2.70;;;;;;;;;;5094486;28;20043;-50
2021/07/18 00:44:35;;;;;;;9.20;2.50;;;;;;;;;;5094819;28;20028;-50
2021/07/18 00:47:01;;;;;;;8.45;2.47;;;;;;;;;;5094542;28;20528;-49
2021/07/18 00:49:27;;;;;;;4.40;2.80;;;;;;;;;;5094340;28;20024;-49
2021/07/18 00:51:53;;;;;;;7.68;3.30;;;;;;;;;;5094492;28;20039;-50
2021/07/18 00:54:20;;;;;;;5.28;2.70;;;;;;;;;;5094680;28;20463;-49
2021/07/18 00:56:46;;;;;;;6.43;3.35;;;;;;;;;;5094468;28;20119;-52
2021/07/18 00:59:12;;;;;;;6.20;2.83;;;;;;;;;;5094026;28;20056;-50
2021/07/18 01:01:38;;;;;;;5.28;3.03;;;;;;;;;;5094171;28;20430;-50
2021/07/18 01:04:04;;;;;;;6.03;3.10;;;;;;;;;;5091438;28;20032;-49
2021/07/18 01:06:30;;;;;;;6.53;2.80;;;;;;;;;;5088771;28;20016;-50
2021/07/18 01:08:56;;;;;;;5.50;2.63;;;;;;;;;;5068145;28;20048;-51
2021/07/18 01:11:22;;;;;;;6.32;2.80;;;;;;;;;;5083595;28;20055;-50
2021/07/18 01:13:48;;;;;;;6.97;2.83;;;;;;;;;;5074204;28;20028;-50
2021/07/18 01:16:14;;;;;;;8.43;3.20;;;;;;;;;;5086816;28;20048;-49
2021/07/18 01:18:40;;;;;;;5.60;2.83;;;;;;;;;;5093751;28;20024;-49
2021/07/18 01:21:07;;;;;;;5.63;2.80;;;;;;;;;;5094297;28;20654;-49
2021/07/18 01:23:36;;;;;;;11.15;3.25;;;;;;;;;;5084121;28;20032;-51
2021/07/18 01:26:02;;;;;;;7.00;3.05;;;;;;;;;;5092737;28;20059;-52
2021/07/18 01:28:28;;;;;;;8.20;3.10;;;;;;;;;;5093246;28;20036;-52
2021/07/18 01:30:54;;;;;;;8.18;3.00;;;;;;;;;;5093599;28;20031;-50
2021/07/18 01:33:20;;;;;;;6.15;3.10;;;;;;;;;;5093946;28;20338;-51
2021/07/18 01:35:46;;;;;;;9.75;3.10;;;;;;;;;;5090283;28;20035;-51
2021/07/18 01:38:13;;;;;;;7.13;3.28;;;;;;;;;;5093474;28;20023;-53
2021/07/18 01:40:39;;;;;;;7.90;3.22;;;;;;;;;;5088517;28;20035;-49
2021/07/18 01:43:06;;;;;;;6.95;2.92;;;;;;;;;;5093638;28;20095;-51
2021/07/18 01:45:32;;;;;;;9.07;3.50;;;;;;;;;;5093428;28;20534;-50
2021/07/18 01:47:58;;;;;;;8.65;3.13;;;;;;;;;;5093152;28;20055;-52
2021/07/18 01:50:24;;;;;;;7.47;2.83;;;;;;;;;;5093486;28;20040;-53
2021/07/18 01:52:50;;;;;;;5.80;2.80;;;;;;;;;;5093588;28;20145;-49
2021/07/18 01:55:22;;;;;;;10.05;3.38;;;;;;;;;;5093269;28;20119;-50
2021/07/18 01:57:48;;;;;;;7.18;3.10;;;;;;;;;;5092797;28;20078;-49
2021/07/18 02:00:14;;;;;;;8.32;2.80;;;;;;;;;;5093167;28;20028;-51
2021/07/18 02:02:41;;;;;;;10.15;3.78;;;;;;;;;;5093401;28;20020;-49
2021/07/18 02:05:07;;;;;;;6.60;3.03;;;;;;;;;;5093292;28;20083;-51
2021/07/18 02:07:33;;;;;;;5.30;2.85;;;;;;;;;;5074248;28;20108;-49
2021/07/18 02:09:59;;;;;;;5.50;2.88;;;;;;;;;;5084834;28;20086;-50
2021/07/18 02:12:25;;;;;;;5.85;2.83;;;;;;;;;;5078240;28;20078;-53
2021/07/18 02:14:51;;;;;;;6.30;2.63;;;;;;;;;;5072424;28;20032;-50
2021/07/18 02:17:17;;;;;;;7.68;2.78;;;;;;;;;;5093150;28;20024;-52
2021/07/18 02:19:43;;;;;;;5.43;2.90;;;;;;;;;;5088150;28;20029;-49
2021/07/18 02:22:10;;;;;;;6.00;2.72;;;;;;;;;;5076691;28;20092;-50
2021/07/18 02:24:36;;;;;;;4.15;2.65;;;;;;;;;;5088048;28;20585;-51
2021/07/18 02:27:02;;;;;;;6.18;2.40;;;;;;;;;;5084347;28;20115;-49
2021/07/18 02:29:28;;;;;;;11.95;2.92;;;;;;;;;;5092139;28;20030;-52
2021/07/18 02:31:55;;;;;;;6.28;2.97;;;;;;;;;;5092748;28;20032;-50
2021/07/18 02:34:21;;;;;;;7.10;2.90;;;;;;;;;;5090321;28;20468;-51
2021/07/18 02:36:47;;;;;;;6.97;2.85;;;;;;;;;;5090481;28;20130;-50
2021/07/18 02:39:13;;;;;;;7.18;2.58;;;;;;;;;;5088392;28;20058;-50
2021/07/18 02:41:39;;;;;;;3.35;2.35;;;;;;;;;;5092468;28;20028;-52
2021/07/18 02:44:08;;;;;;;8.85;2.33;;;;;;;;;;5092395;28;20028;-50
2021/07/18 02:46:35;;;;;;;4.53;2.50;;;;;;;;;;5092772;28;20107;-54
2021/07/18 02:49:01;;;;;;;4.70;2.35;;;;;;;;;;5092240;28;20107;-53
2021/07/18 02:51:27;;;;;;;9.90;2.65;;;;;;;;;;5092389;28;20058;-50
2021/07/18 02:53:54;;;;;;;5.40;2.65;;;;;;;;;;5092699;28;20028;-51
2021/07/18 02:56:20;;;;;;;6.10;2.42;;;;;;;;;;5091965;28;20514;-49
2021/07/18 02:58:46;;;;;;;8.70;2.95;;;;;;;;;;5092037;28;20441;-50
2021/07/18 03:01:12;;;;;;;4.57;2.38;;;;;;;;;;5092477;28;20085;-48
2021/07/18 03:03:38;;;;;;;6.32;2.88;;;;;;;;;;5092290;28;20028;-49
2021/07/18 03:06:04;;;;;;;5.60;1.95;;;;;;;;;;5078953;28;20039;-51
2021/07/18 03:08:30;;;;;;;5.80;2.65;;;;;;;;;;5064773;28;20427;-49
2021/07/18 03:10:56;;;;;;;6.50;2.53;;;;;;;;;;5079288;28;20036;-49
2021/07/18 03:13:22;;;;;;;6.90;2.53;;;;;;;;;;5073392;28;20108;-51
2021/07/18 03:15:48;;;;;;;5.85;2.58;;;;;;;;;;5082537;28;20058;-49
2021/07/18 03:18:14;;;;;;;3.38;2.08;;;;;;;;;;5091667;28;20024;-51
2021/07/18 03:20:39;;;;;;;5.88;2.15;;;;;;;;;;5091991;28;20082;-50
2021/07/18 03:23:06;;;;;;;7.22;2.20;;;;;;;;;;5082214;28;20035;-50
2021/07/18 03:25:32;;;;;;;3.90;2.10;;;;;;;;;;5092014;28;20028;-49
2021/07/18 03:27:58;;;;;;;5.05;2.70;;;;;;;;;;5091327;28;20065;-50
2021/07/18 03:30:24;;;;;;;8.10;2.45;;;;;;;;;;5092040;28;20032;-52
2021/07/18 03:32:51;;;;;;;7.68;2.20;;;;;;;;;;5091941;28;20111;-54
2021/07/18 03:35:17;;;;;;;8.18;2.10;;;;;;;;;;5089455;28;20028;-49
2021/07/18 03:37:43;;;;;;;8.27;2.47;;;;;;;;;;5092393;28;20074;-49
2021/07/18 03:40:10;;;;;;;6.18;2.38;;;;;;;;;;5092115;28;20020;-49
2021/07/18 03:42:36;;;;;;;11.07;2.70;;;;;;;;;;5095462;28;20111;-49
2021/07/18 03:45:03;;;;;;;8.07;2.20;;;;;;;;;;5096004;28;20038;-49
2021/07/18 03:47:29;;;;;;;6.40;1.95;;;;;;;;;;5095834;28;20460;-51
2021/07/18 03:49:54;;;;;;;2.60;2.10;;;;;;;;;;5095827;28;20032;-49
2021/07/18 03:52:20;;;;;;;4.07;2.25;;;;;;;;;;5095625;28;20028;-55
2021/07/18 03:54:46;;;;;;;5.25;2.35;;;;;;;;;;5095614;28;20061;-51
2021/07/18 03:57:12;;;;;;;5.03;2.20;;;;;;;;;;5095612;28;20035;-50
2021/07/18 03:59:38;;;;;;;3.20;1.92;;;;;;;;;;5095002;28;20038;-51
2021/07/18 04:02:04;;;;;;;3.08;1.73;;;;;;;;;;5095618;28;20028;-49
2021/07/18 04:04:33;;;;;;;7.68;2.65;;;;;;;;;;5083735;28;20021;-51
2021/07/18 04:06:59;;;;;;;7.65;2.03;;;;;;;;;;5085616;28;20013;-51
2021/07/18 04:09:25;;;;;;;4.88;2.20;;;;;;;;;;5077795;28;20048;-54
2021/07/18 04:11:51;;;;;;;7.43;1.98;;;;;;;;;;5084861;28;20039;-49
2021/07/18 04:14:17;;;;;;;5.68;2.05;;;;;;;;;;5071791;28;20529;-50
2021/07/18 04:16:43;;;;;;;6.38;1.85;;;;;;;;;;5093481;28;20494;-50
2021/07/18 04:19:09;;;;;;;3.58;2.00;;;;;;;;;;5095011;28;20070;-49
2021/07/18 04:21:35;;;;;;;6.13;2.50;;;;;;;;;;5093633;28;20024;-49
2021/07/18 04:24:01;;;;;;;4.15;2.42;;;;;;;;;;5086822;28;20031;-49
2021/07/18 04:26:27;;;;;;;6.05;2.70;;;;;;;;;;5095181;28;20079;-51
2021/07/18 04:28:53;;;;;;;7.95;2.70;;;;;;;;;;5094494;28;20056;-54
2021/07/18 04:31:19;;;;;;;5.65;2.20;;;;;;;;;;5094977;28;20035;-51
2021/07/18 04:33:45;;;;;;;6.97;2.95;;;;;;;;;;5094948;28;20107;-49
2021/07/18 04:36:11;;;;;;;5.55;2.22;;;;;;;;;;5091527;28;20498;-50
2021/07/18 04:38:37;;;;;;;9.20;2.25;;;;;;;;;;5091895;28;20020;-50
2021/07/18 04:41:03;;;;;;;5.43;2.33;;;;;;;;;;5081512;28;20016;-54
2021/07/18 04:43:29;;;;;;;4.10;2.47;;;;;;;;;;5094567;28;20091;-54
2021/07/18 04:45:55;;;;;;;4.50;2.15;;;;;;;;;;5094745;28;20128;-49
2021/07/18 04:48:21;;;;;;;3.15;2.00;;;;;;;;;;5093750;28;20039;-50
2021/07/18 04:50:47;;;;;;;5.60;2.35;;;;;;;;;;5094469;28;20028;-51
2021/07/18 04:53:13;;;;;;;4.57;2.10;;;;;;;;;;5094816;28;20024;-50
2021/07/18 04:55:39;;;;;;;6.60;2.20;;;;;;;;;;5094550;28;20073;-50
2021/07/18 04:58:05;;;;;;;4.68;2.05;;;;;;;;;;5094203;28;20017;-49
2021/07/18 05:00:31;;;;;;;6.03;2.58;;;;;;;;;;5094602;28;20448;-51
2021/07/18 05:02:57;;;;;;;4.43;2.40;;;;;;;;;;5094374;28;20039;-53
2021/07/18 05:05:23;;;;;;;4.72;2.20;;;;;;;;;;5094441;28;20035;-50
2021/07/18 05:07:51;;;;;;;5.07;2.08;;;;;;;;;;5070518;28;20116;-53
2021/07/18 05:10:18;;;;;;;4.07;2.40;;;;;;;;;;5076993;28;20111;-51
2021/07/18 05:12:48;;;;;;;5.93;2.17;;;;;;;;;;5079055;28;20024;-50
2021/07/18 05:15:14;;;;;;;7.47;2.72;;;;;;;;;;5076226;28;20035;-52
2021/07/18 05:17:40;;;;;;;4.65;2.00;;;;;;;;;;5093813;28;20039;-51
2021/07/18 05:20:06;;;;;;;5.32;2.22;;;;;;;;;;5093839;28;20108;-49
2021/07/18 05:22:32;;;;;;;6.40;2.53;;;;;;;;;;5085122;28;20544;-50
2021/07/18 05:24:58;;;;;;;5.05;2.35;;;;;;;;;;5087638;28;20039;-53
2021/07/18 05:27:24;;;;;;;6.13;2.35;;;;;;;;;;5094326;28;20035;-49
2021/07/18 05:29:50;;;;;;;7.80;2.20;;;;;;;;;;5093208;28;20112;-51
2021/07/18 05:32:16;;;;;;;7.28;2.58;;;;;;;;;;5094052;28;20024;-50
2021/07/18 05:34:42;;;;;;;5.55;2.40;;;;;;;;;;5090725;28;20036;-49
2021/07/18 05:37:08;;;;;;;6.75;1.95;;;;;;;;;;5091856;28;20026;-49
2021/07/18 05:39:34;;;;;;;7.10;2.15;;;;;;;;;;5089467;28;20423;-55
2021/07/18 05:42:00;;;;;;;5.38;2.05;;;;;;;;;;5093641;28;20016;-51
2021/07/18 05:44:26;;;;;;;8.38;2.03;;;;;;;;;;5093664;28;20028;-55
2021/07/18 05:46:53;;;;;;;5.05;1.92;;;;;;;;;;5066856;28;20029;-53
2021/07/18 05:49:19;;;;;;;4.30;2.30;;;;;;;;;;5093114;28;20032;-50
2021/07/18 05:51:45;;;;;;;12.00;3.53;;;;;;;;;;5093202;28;20155;-49
2021/07/18 05:54:10;;;;;;;4.47;2.40;;;;;;;;;;5092434;28;20028;-49
2021/07/18 05:56:37;;;;;;;5.90;2.30;;;;;;;;;;5093329;28;20030;-52
2021/07/18 05:59:03;;;;;;;8.75;2.30;;;;;;;;;;5093006;28;20103;-50
2021/07/18 06:01:29;;;;;;;4.82;1.95;;;;;;;;;;5092826;28;20518;-49
2021/07/18 06:03:55;;;;;;;4.25;2.08;;;;;;;;;;5087435;28;20035;-49
2021/07/18 06:06:21;;;;;;;3.72;1.98;;;;;;;;;;5093460;28;20038;-49
2021/07/18 06:08:47;;;;;;;9.02;2.72;;;;;;;;;;5066078;28;20523;-49
2021/07/18 06:11:13;;;;;;;5.70;2.88;;;;;;;;;;5083121;28;20526;-50
2021/07/18 06:13:39;;;;;;;5.18;2.20;;;;;;;;;;5074262;28;20028;-50
2021/07/18 06:16:05;;;;;;;4.90;2.10;;;;;;;;;;5085859;28;20028;-54
2021/07/18 06:18:31;;;;;;;6.22;2.33;;;;;;;;;;5092475;28;20433;-52
2021/07/18 06:20:57;;;;;;;4.63;1.58;;;;;;;;;;5093025;28;20023;-51
2021/07/18 06:23:23;;;;;;;6.75;2.28;;;;;;;;;;5082941;28;20020;-52
2021/07/18 06:25:49;;;;;;;6.93;1.80;;;;;;;;;;5093111;28;20020;-52
2021/07/18 06:28:15;;;;;;;2.58;1.80;;;;;;;;;;5091941;28;20127;-50
2021/07/18 06:30:41;;;;;;;5.97;2.08;;;;;;;;;;5092825;28;20032;-50
2021/07/18 06:33:07;;;;;;;4.05;1.75;;;;;;;;;;5081547;28;20762;-49
2021/07/18 06:35:33;;;;;;;2.90;1.60;;;;;;;;;;5077271;28;20024;-49
2021/07/18 06:37:59;;;;;;;4.43;1.88;;;;;;;;;;5092356;28;20024;-50
2021/07/18 06:40:25;;;;;;;3.40;1.80;;;;;;;;;;5088662;28;20028;-49
2021/07/18 06:42:51;;;;;;;4.22;1.98;;;;;;;;;;5092644;28;20502;-50
2021/07/18 06:45:17;;;;;;;5.78;1.55;;;;;;;;;;5092268;28;20036;-49
2021/07/18 06:47:43;;;;;;;3.45;1.73;;;;;;;;;;5090697;28;20028;-50
2021/07/18 06:50:10;;;;;;;6.35;1.80;;;;;;;;;;5092318;28;20120;-52
2021/07/18 06:52:36;;;;;;;4.43;1.77;;;;;;;;;;5092268;28;20129;-53
2021/07/18 06:55:01;;;;;;;3.80;1.90;;;;;;;;;;5086752;28;20490;-54
2021/07/18 06:57:27;;;;;;;6.20;2.17;;;;;;;;;;5092258;28;20085;-49
2021/07/18 06:59:53;;;;;;;4.75;1.77;;;;;;;;;;5092084;28;20024;-50
2021/07/18 07:02:19;;;;;;;2.63;1.70;;;;;;;;;;5089421;28;20459;-50
2021/07/18 07:04:45;;;;;;;2.60;1.35;;;;;;;;;;5091880;28;20031;-55
2021/07/18 07:07:12;;;;;;;4.60;1.90;;;;;;;;;;5079655;28;20481;-50
2021/07/18 07:09:38;;;;;;;3.38;1.40;;;;;;;;;;5078266;28;20051;-51
2021/07/18 07:12:05;;;;;;;4.85;1.75;;;;;;;;;;5074293;28;20016;-51
2021/07/18 07:14:31;;;;;;;5.22;1.42;;;;;;;;;;5068498;28;20052;-51
2021/07/18 07:16:57;;;;;;;3.70;1.52;;;;;;;;;;5091991;28;20043;-50
2021/07/18 07:19:23;;;;;;;3.97;1.63;;;;;;;;;;5091590;28;20341;-50
2021/07/18 07:21:49;;;;;;;4.03;1.35;;;;;;;;;;5088939;28;20017;-49
2021/07/18 07:24:15;;;;;;;4.32;1.98;;;;;;;;;;5086154;28;20028;-51
2021/07/18 07:26:41;;;;;;;3.17;1.67;;;;;;;;;;5092024;28;20345;-54
2021/07/18 07:29:07;;;;;;;3.78;2.13;;;;;;;;;;5091507;28;20035;-49
2021/07/18 07:31:33;;;;;;;3.42;1.42;;;;;;;;;;5087166;28;20121;-50
2021/07/18 07:33:59;;;;;;;11.18;1.50;;;;;;;;;;5080503;28;20487;-52
2021/07/18 07:36:25;;;;;;;2.92;1.33;;;;;;;;;;5079104;28;20027;-50
2021/07/18 07:38:52;;;;;;;5.05;1.55;;;;;;;;;;5086753;28;20575;-51
2021/07/18 07:41:18;;;;;;;3.15;1.40;;;;;;;;;;5092007;28;20181;-50
2021/07/18 07:43:43;;;;;;;8.80;1.80;;;;;;;;;;5091632;28;20052;-50
2021/07/18 07:46:10;;;;;;;3.92;1.75;;;;;;;;;;5091958;28;20093;-49
2021/07/18 07:48:36;;;;;;;2.53;1.40;;;;;;;;;;5091560;28;20110;-51
2021/07/18 07:51:04;;;;;;;3.65;1.33;;;;;;;;;;5091962;28;20032;-49
2021/07/18 07:53:30;;;;;;;3.60;1.40;;;;;;;;;;5091749;28;20021;-50
2021/07/18 07:55:56;;;;;;;3.85;1.65;;;;;;;;;;5091825;28;20123;-52
2021/07/18 07:58:22;;;;;;;3.13;1.35;;;;;;;;;;5086709;28;20078;-49
2021/07/18 08:00:48;;;;;;;2.75;1.38;;;;;;;;;;5080904;28;20024;-53
2021/07/18 08:03:14;;;;;;;2.53;1.33;;;;;;;;;;5091563;28;20038;-49
2021/07/18 08:05:40;;;;;;;6.50;1.33;;;;;;;;;;5079039;28;20033;-50
2021/07/18 08:08:06;;;;;;;5.72;1.70;;;;;;;;;;5060573;28;20110;-50
2021/07/18 08:10:32;;;;;;;2.15;1.17;;;;;;;;;;5087471;28;20032;-50
2021/07/18 08:12:58;;;;;;;2.90;1.20;;;;;;;;;;5075056;28;20077;-49
2021/07/18 08:15:24;;;;;;;4.00;1.15;;;;;;;;;;5076260;28;20028;-49
2021/07/18 08:17:51;;;;;;;3.95;1.30;;;;;;;;;;5084475;28;20028;-49
2021/07/18 08:20:18;;;;;;;3.00;1.20;;;;;;;;;;5091865;28;20027;-51
2021/07/18 08:22:45;;;;;;;3.92;1.02;;;;;;;;;;5081928;28;20024;-49
2021/07/18 08:25:11;;;;;;;3.33;1.50;;;;;;;;;;5084063;28;20028;-50
2021/07/18 08:27:37;;;;;;;2.60;1.50;;;;;;;;;;5094746;28;20073;-51
2021/07/18 08:30:04;;;;;;;5.55;1.50;;;;;;;;;;5095102;28;20024;-52
2021/07/18 08:32:30;;;;;;;5.97;1.30;;;;;;;;;;5094881;28;20059;-50
2021/07/18 08:34:56;;;;;;;5.13;1.33;;;;;;;;;;5087416;28;20424;-49
2021/07/18 08:37:22;;;;;;;3.53;1.13;;;;;;;;;;5087761;28;20032;-49
2021/07/18 08:39:48;;;;;;;2.97;1.35;;;;;;;;;;5090723;28;20039;-54
2021/07/18 08:42:15;;;;;;;5.25;1.55;;;;;;;;;;5094637;28;20107;-51
2021/07/18 08:44:42;;;;;;;3.97;1.45;;;;;;;;;;5095208;28;20020;-50
2021/07/18 08:47:09;;;;;;;2.33;1.08;;;;;;;;;;5094788;28;20032;-50
2021/07/18 08:49:35;;;;;;;2.13;1.10;;;;;;;;;;5094491;28;20544;-50
2021/07/18 08:52:01;;;;;;;2.47;1.60;;;;;;;;;;5094578;28;20016;-53
2021/07/18 08:54:27;;;;;;;2.42;1.10;;;;;;;;;;5094606;28;20067;-51
2021/07/18 08:56:56;;;;;;;6.50;1.13;;;;;;;;;;5094366;28;20754;-52
2021/07/18 08:59:22;;;;;;;1.88;1.25;;;;;;;;;;5091073;28;20073;-49
2021/07/18 09:01:48;;;;;;;2.65;1.10;;;;;;;;;;5091102;28;20051;-50
2021/07/18 09:04:14;;;;;;;3.15;1.20;;;;;;;;;;5093327;28;20024;-50
2021/07/18 09:06:50;;;;;;;4.07;1.00;;;;;;;;;;5090065;28;20031;-51
2021/07/18 09:09:25;;;;;;;3.70;1.05;;;;;;;;;;5078174;28;20083;-50
2021/07/18 09:12:20;;;;;;;4.28;1.23;;;;;;;;;;5080787;28;20131;-52
2021/07/18 09:14:47;;;;;;;9.15;1.35;;;;;;;;;;5059586;28;20028;-51
2021/07/18 09:17:17;;;;;;;3.25;1.10;;;;;;;;;;5094383;28;20024;-49
2021/07/18 09:19:44;;;;;;;4.10;1.20;;;;;;;;;;5093688;28;20032;-50
2021/07/18 09:22:15;;;;;;;5.47;1.15;;;;;;;;;;5088230;28;20067;-50
2021/07/18 09:24:51;;;;;;;2.88;1.02;;;;;;;;;;5073820;28;20031;-50
2021/07/18 09:27:19;;;;;;;1.77;1.05;;;;;;;;;;5086125;28;20036;-52
2021/07/18 09:29:47;;;;;;;3.78;1.17;;;;;;;;;;5093347;28;20028;-54
2021/07/18 09:32:15;;;;;;;1.85;1.30;;;;;;;;;;5093887;28;20044;-52
2021/07/18 09:34:45;;;;;;;2.42;0.95;;;;;;;;;;5093609;28;20016;-50
2021/07/18 09:37:14;;;;;;;3.47;1.10;;;;;;;;;;5091422;28;20020;-50
2021/07/18 09:39:41;;;;;;;2.85;1.20;;;;;;;;;;5074470;28;20024;-55
2021/07/18 09:42:07;;;;;;;4.20;1.48;;;;;;;;;;5093949;28;20584;-51
2021/07/18 09:44:40;;;;;;;2.90;1.10;;;;;;;;;;5094146;28;20012;-49
2021/07/18 09:47:06;;;;;;;3.58;0.90;;;;;;;;;;5093412;28;20075;-51
2021/07/18 09:49:35;;;;;;;2.28;1.05;;;;;;;;;;5093392;28;20047;-51
2021/07/18 09:52:18;;;;;;;3.75;1.23;;;;;;;;;;5093192;28;20031;-51
2021/07/18 09:54:44;;;;;;;3.65;1.10;;;;;;;;;;5076360;28;20103;-50
2021/07/18 09:57:11;;;;;;;3.85;1.70;;;;;;;;;;5093524;28;20042;-51
2021/07/18 09:59:38;;;;;;;1.60;1.00;;;;;;;;;;5093237;28;20027;-51
2021/07/18 10:02:08;;;;;;;2.20;1.02;;;;;;;;;;5093207;28;20020;-51
2021/07/18 10:04:40;;;;;;;5.57;1.30;;;;;;;;;;5088236;28;20559;-50
2021/07/18 10:07:07;;;;;;;2.17;1.00;;;;;;;;;;5082074;28;20100;-50
2021/07/18 10:09:34;;;;;;;2.22;0.95;;;;;;;;;;5077355;28;20047;-52
2021/07/18 10:12:00;;;;;;;3.13;1.08;;;;;;;;;;5081437;28;20051;-54
2021/07/18 10:14:27;;;;;;;2.42;1.25;;;;;;;;;;5069369;28;20111;-52
2021/07/18 10:16:55;;;;;;;4.65;1.33;;;;;;;;;;5092481;28;20024;-49
2021/07/18 10:19:21;;;;;;;3.35;1.05;;;;;;;;;;5092658;28;20028;-53
2021/07/18 10:21:47;;;;;;;1.83;0.80;;;;;;;;;;5090018;28;20028;-51
2021/07/18 10:24:15;;;;;;;4.68;1.20;;;;;;;;;;5085857;28;20099;-50
2021/07/18 10:26:41;;;;;;;4.20;1.00;;;;;;;;;;5093137;28;20104;-51
2021/07/18 10:29:09;;;;;;;4.68;1.35;;;;;;;;;;5092473;28;20039;-51
2021/07/18 10:31:52;;;;;;;2.97;1.38;;;;;;;;;;5092918;28;20035;-49
2021/07/18 10:34:19;;;;;;;10.02;1.20;;;;;;;;;;5070684;28;20036;-50
2021/07/18 10:36:45;;;;;;;2.47;1.27;;;;;;;;;;5079785;28;20641;-54
2021/07/18 10:39:30;;;;;;;2.00;1.05;;;;;;;;;;5083911;28;20021;-49
2021/07/18 10:41:57;;;;;;;1.80;0.85;;;;;;;;;;5092651;28;20051;-52
2021/07/18 10:44:23;;;;;;;4.43;1.00;;;;;;;;;;5092264;28;20024;-50
2021/07/18 10:46:54;;;;;;;1.92;0.90;;;;;;;;;;5091999;28;20024;-50
2021/07/18 10:49:40;;;;;;;2.10;1.02;;;;;;;;;;5091238;28;20023;-50
2021/07/18 10:52:11;;;;;;;5.20;1.17;;;;;;;;;;5092243;28;20055;-51
2021/07/18 10:54:42;;;;;;;2.00;0.90;;;;;;;;;;5092022;28;20097;-49
2021/07/18 10:57:20;;;;;;;2.42;1.00;;;;;;;;;;5092786;28;20032;-49
2021/07/18 10:59:45;;;;;;;2.05;0.98;;;;;;;;;;5092340;28;20035;-49
2021/07/18 11:02:16;;;;;;;4.15;1.35;;;;;;;;;;5092256;28;20024;-49
2021/07/18 11:04:47;;;;;;;3.78;1.15;;;;;;;;;;5092202;28;20028;-52
2021/07/18 11:07:22;;;;;;;3.55;1.08;;;;;;;;;;5079209;28;20353;-49
2021/07/18 11:10:03;;;;;;;4.43;1.20;;;;;;;;;;5079860;28;20426;-49
2021/07/18 11:12:35;;;;;;;2.13;0.95;;;;;;;;;;5067050;28;20016;-49
2021/07/18 11:15:16;;;;;;;2.10;0.90;;;;;;;;;;5072310;28;20035;-50
2021/07/18 11:18:01;;;;;;;1.60;0.90;;;;;;;;;;5079275;28;20059;-50
2021/07/18 11:20:46;;;;;;;3.75;1.13;;;;;;;;;;5070141;28;20028;-51
2021/07/18 11:23:12;;;;;;;3.45;1.30;;;;;;;;;;5070541;28;20031;-49
2021/07/18 11:25:40;;;;;;;2.30;1.05;;;;;;;;;;5092281;28;20052;-49
2021/07/18 11:28:25;;;;;;;3.72;1.10;;;;;;;;;;5091760;28;20038;-55
2021/07/18 11:30:51;;;;;;;2.90;1.05;;;;;;;;;;5091817;28;20059;-49
2021/07/18 11:33:29;;;;;;;3.53;0.85;;;;;;;;;;5092094;28;20060;-51
2021/07/18 11:35:56;;;;;;;5.72;1.45;;;;;;;;;;5078818;28;20031;-50
2021/07/18 11:38:22;;;;;;;1.35;0.90;;;;;;;;;;5090887;28;20421;-51
2021/07/18 11:40:48;;;;;;;4.55;0.88;;;;;;;;;;5088737;28;20028;-49
2021/07/18 11:43:14;;;;;;;2.25;1.00;;;;;;;;;;5092034;28;20376;-51
2021/07/18 11:45:40;;;;;;;3.35;1.00;;;;;;;;;;5091899;28;20114;-53
2021/07/18 11:48:06;;;;;;;3.00;0.95;;;;;;;;;;5091770;28;20523;-50
2021/07/18 11:50:32;;;;;;;2.25;0.88;;;;;;;;;;5091738;28;20426;-49
2021/07/18 11:53:01;;;;;;;3.38;0.80;;;;;;;;;;5091633;28;20026;-49
2021/07/18 11:55:29;;;;;;;2.65;0.75;;;;;;;;;;5091318;28;20110;-52
2021/07/18 11:57:56;;;;;;;2.10;0.88;;;;;;;;;;5091623;28;20145;-51
2021/07/18 12:00:22;;;;;;;7.93;0.73;;;;;;;;;;5095340;28;20032;-50
2021/07/18 12:02:50;;;;;;;3.30;0.80;;;;;;;;;;5093319;28;20531;-49
2021/07/18 12:05:16;;;;;;;4.93;0.80;;;;;;;;;;5094288;28;20140;-50
2021/07/18 12:07:42;;;;;;;2.40;0.68;;;;;;;;;;5073818;28;20033;-50
2021/07/18 12:10:19;;;;;;;3.47;0.93;;;;;;;;;;5088701;28;20040;-48
2021/07/18 12:12:48;;;;;;;3.63;0.82;;;;;;;;;;5080901;28;20119;-49
2021/07/18 12:15:14;;;;;;;2.38;0.75;;;;;;;;;;5077651;28;20107;-49
2021/07/18 12:17:40;;;;;;;2.20;0.73;;;;;;;;;;5095058;28;20016;-49
2021/07/18 12:20:08;;;;;;;1.35;0.70;;;;;;;;;;5095021;28;20016;-49
2021/07/18 12:22:34;;;;;;;5.15;1.08;;;;;;;;;;5085944;28;20477;-50
2021/07/18 12:25:00;;;;;;;1.48;0.50;;;;;;;;;;5095273;28;20027;-52
2021/07/18 12:27:27;;;;;;;2.92;0.82;;;;;;;;;;5095264;28;20047;-52
2021/07/18 12:29:55;;;;;;;2.58;1.10;;;;;;;;;;5094863;28;20024;-51
2021/07/18 12:32:22;;;;;;;2.40;0.70;;;;;;;;;;5086508;28;20441;-51
2021/07/18 12:34:49;;;;;;;2.83;1.20;;;;;;;;;;5094691;28;20021;-51
2021/07/18 12:37:18;;;;;;;3.95;0.88;;;;;;;;;;5092825;28;20027;-49
2021/07/18 12:39:47;;;;;;;6.40;0.68;;;;;;;;;;5091243;28;20035;-54
2021/07/18 12:42:32;;;;;;;2.58;0.80;;;;;;;;;;5094886;28;20030;-52
2021/07/18 12:45:17;;;;;;;2.45;1.00;;;;;;;;;;5094788;28;20039;-52
2021/07/18 12:47:44;;;;;;;2.33;0.47;;;;;;;;;;5087905;28;20107;-49
2021/07/18 12:50:19;;;;;;;3.50;1.25;;;;;;;;;;5094753;28;20349;-51
2021/07/18 12:52:54;;;;;;;4.10;1.00;;;;;;;;;;5094598;28;20024;-53
2021/07/18 12:55:21;;;;;;;2.03;0.80;;;;;;;;;;5094643;28;20419;-50
2021/07/18 12:57:48;;;;;;;3.25;1.10;;;;;;;;;;5094223;28;20055;-53
2021/07/18 13:00:15;;;;;;;3.80;0.85;;;;;;;;;;5094723;28;20102;-52
2021/07/18 13:02:41;;;;;;;3.20;0.90;;;;;;;;;;5094683;28;20116;-49
2021/07/18 13:05:08;;;;;;;4.15;0.60;;;;;;;;;;5094617;28;20020;-51
2021/07/18 13:07:35;;;;;;;2.67;0.73;;;;;;;;;;5072919;28;20074;-50
2021/07/18 13:10:12;;;;;;;3.65;0.75;;;;;;;;;;5085964;28;20212;-50
2021/07/18 13:12:39;;;;;;;4.53;0.70;;;;;;;;;;5079592;28;20511;-52
2021/07/18 13:15:15;;;;;;;5.03;0.93;;;;;;;;;;5074938;28;20028;-52
2021/07/18 13:17:54;;;;;;;2.60;0.65;;;;;;;;;;5093994;28;20024;-51
2021/07/18 13:20:21;;;;;;;1.88;0.70;;;;;;;;;;5094508;28;20016;-56
2021/07/18 13:22:48;;;;;;;1.17;0.38;;;;;;;;;;5083863;28;20043;-51
2021/07/18 13:25:19;;;;;;;4.03;0.63;;;;;;;;;;5094413;28;20035;-49
2021/07/18 13:27:45;;;;;;;4.43;0.80;;;;;;;;;;5093492;28;20107;-50
2021/07/18 13:30:12;;;;;;;5.53;0.70;;;;;;;;;;5084178;28;20016;-50
2021/07/18 13:32:39;;;;;;;2.80;0.47;;;;;;;;;;5090010;28;20037;-49
2021/07/18 13:35:10;;;;;;;3.47;0.80;;;;;;;;;;5090140;28;20117;-50
2021/07/18 13:37:36;;;;;;;2.40;0.60;;;;;;;;;;5088424;28;20035;-54
2021/07/18 13:40:03;;;;;;;2.13;0.75;;;;;;;;;;5090368;28;20524;-54
2021/07/18 13:42:33;;;;;;;6.60;0.80;;;;;;;;;;5086319;28;20020;-51
2021/07/18 13:44:59;;;;;;;1.95;0.40;;;;;;;;;;5094025;28;20063;-53
2021/07/18 13:47:25;;;;;;;2.22;0.57;;;;;;;;;;5093286;28;20116;-52
2021/07/18 13:49:51;;;;;;;4.43;0.95;;;;;;;;;;5093155;28;20025;-49
2021/07/18 13:52:17;;;;;;;6.60;0.52;;;;;;;;;;5093420;28;20073;-50
2021/07/18 13:54:43;;;;;;;2.25;0.70;;;;;;;;;;5093749;28;20492;-52
2021/07/18 13:57:09;;;;;;;3.92;0.50;;;;;;;;;;5093461;28;20024;-53
2021/07/18 13:59:35;;;;;;;2.15;0.55;;;;;;;;;;5093165;28;20035;-51
2021/07/18 14:02:01;;;;;;;1.48;0.57;;;;;;;;;;5092949;28;20527;-51
2021/07/18 14:04:27;;;;;;;1.27;0.50;;;;;;;;;;5093431;28;20070;-52
2021/07/18 14:06:53;;;;;;;3.90;0.50;;;;;;;;;;5085767;28;20021;-52
2021/07/18 14:09:19;;;;;;;2.42;0.50;;;;;;;;;;5074055;28;20051;-53
2021/07/18 14:11:45;;;;;;;3.17;0.52;;;;;;;;;;5082545;28;20054;-52
2021/07/18 14:14:11;;;;;;;3.60;0.93;;;;;;;;;;5070302;28;20460;-51
2021/07/18 14:16:37;;;;;;;2.65;0.47;;;;;;;;;;5090150;28;20027;-54
2021/07/18 14:19:05;;;;;;;3.85;0.63;;;;;;;;;;5088108;28;20048;-54
2021/07/18 14:21:31;;;;;;;1.63;0.43;;;;;;;;;;5091566;28;20030;-50
2021/07/18 14:23:57;;;;;;;2.40;0.40;;;;;;;;;;5084151;28;20028;-51
2021/07/18 14:26:23;;;;;;;1.88;0.47;;;;;;;;;;5090623;28;20029;-53
2021/07/18 14:28:49;;;;;;;3.42;0.68;;;;;;;;;;5083930;28;20031;-51
2021/07/18 14:31:15;;;;;;;6.97;0.60;;;;;;;;;;5092728;28;20024;-53
2021/07/18 14:33:41;;;;;;;1.17;0.40;;;;;;;;;;5092524;28;20341;-52
2021/07/18 14:36:07;;;;;;;3.28;0.45;;;;;;;;;;5090024;28;20110;-51
2021/07/18 14:38:33;;;;;;;3.45;0.77;;;;;;;;;;5090488;28;20046;-53
2021/07/18 14:40:59;;;;;;;2.85;0.70;;;;;;;;;;5091117;28;20503;-51
2021/07/18 14:43:25;;;;;;;1.80;0.47;;;;;;;;;;5092800;28;20035;-51